Time;durP1;ratioP1;P1;durP2;ratioP2;P2;SDS_P1;SDS_P2;PMS_P1;PMS_P2;Temp;Humidity;BMP_temperature;BMP_pressure;BME280_temperature;BME280_humidity;BME280_pressure;Samples;Min_cycle;Max_cycle;Signal;HPM_P1;HPM_P2
2022/01/25 00:09:34;;;;;;;;;;;;;;;9.27;63.69;102755.06;7365439;19;19927;-62
2022/01/25 00:33:24;;;;;;;;;;;;;;;9.12;63.78;102769.59;7364346;19;19922;-62
2022/01/25 00:35:49;;;;;;;;;;;;;;;9.12;63.82;102766.97;7353404;19;19922;-62
2022/01/25 00:38:14;;;;;;;;;;;;;;;9.12;63.79;102766.97;7361613;19;19977;-62
2022/01/25 00:40:40;;;;;;;;;;;;;;;9.12;64.04;102766.97;7359500;19;19919;-62
2022/01/25 00:43:05;;;;;;;;;;;;;;;9.07;64.06;102764.28;7354099;19;19978;-62
2022/01/25 00:45:30;;;;;;;;;;;;;;;9.10;63.91;102775.66;7356158;19;19936;-62
2022/01/25 00:47:56;;;;;;;;;;;;;;;9.09;63.82;102763.47;7361810;19;19919;-62
2022/01/25 00:50:22;;;;;;;;;;;;;;;9.09;63.83;102770.44;7352729;19;19919;-61
2022/01/25 00:55:13;;;;;;;;;;;;;;;9.08;64.03;102766.94;7365367;19;19947;-62
2022/01/25 00:57:39;;;;;;;;;;;;;;;9.07;64.07;102765.19;7357899;19;19965;-62
2022/01/25 01:00:06;;;;;;;;;;;;;;;9.06;64.29;102763.41;7364378;19;19926;-62
2022/01/25 01:02:35;;;;;;;;;;;;;;;9.05;64.27;102766.88;7361158;19;20277;-62
2022/01/25 01:05:00;;;;;;;;;;;;;;;9.07;64.33;102769.50;7361755;19;20346;-62
2022/01/25 01:07:26;;;;;;;;;;;;;;;9.07;64.00;102767.81;7367115;19;19911;-62
2022/01/25 01:09:52;;;;;;;;;;;;;;;9.06;63.98;102762.56;7345075;19;19925;-61
2022/01/25 01:15:06;;;;;;;;;;;;;;;9.07;64.13;102764.28;7365314;19;19915;-62
2022/01/25 01:29:04;;;;;;;;;;;;;;;9.07;64.37;102760.00;7369987;19;19948;-62
2022/01/25 01:31:33;;;;;;;;;;;;;;;9.09;64.43;102750.47;7351359;19;19922;-62
2022/01/25 01:39:43;;;;;;;;;;;;;;;9.08;64.39;102751.31;7375425;19;20007;-62
2022/01/25 01:45:23;;;;;;;;;;;;;;;9.08;64.17;102735.69;7373110;19;19933;-62
2022/01/25 01:47:46;;;;;;;;;;;;;;;9.07;64.32;102735.63;7361964;19;19918;-63
2022/01/25 01:50:13;;;;;;;;;;;;;;;9.05;64.13;102738.22;7367226;19;19923;-62
2022/01/25 01:52:39;;;;;;;;;;;;;;;9.05;64.42;102733.00;7368736;19;20418;-62
2022/01/25 01:55:05;;;;;;;;;;;;;;;9.05;64.15;102724.31;7367678;19;19922;-62
2022/01/25 01:57:31;;;;;;;;;;;;;;;9.04;63.92;102727.78;7356866;19;19946;-62
2022/01/25 01:59:56;;;;;;;;;;;;;;;9.04;63.77;102733.00;7369845;19;19919;-63
2022/01/25 02:02:21;;;;;;;;;;;;;;;9.02;63.96;102727.75;7367932;19;19951;-62
2022/01/25 02:04:47;;;;;;;;;;;;;;;9.02;63.88;102727.75;7361340;19;19923;-62
2022/01/25 02:07:12;;;;;;;;;;;;;;;9.01;63.99;102728.59;7368520;19;19926;-62
2022/01/25 02:09:37;;;;;;;;;;;;;;;8.99;64.01;102727.69;7369458;19;19929;-62
2022/01/25 02:12:03;;;;;;;;;;;;;;;8.98;64.15;102727.69;7370460;19;19919;-62
2022/01/25 02:14:28;;;;;;;;;;;;;;;8.96;63.70;102719.81;7363161;19;21438;-61
2022/01/25 02:17:06;;;;;;;;;;;;;;;8.93;64.09;102725.00;7369736;19;19911;-62
2022/01/25 02:22:31;;;;;;;;;;;;;;;8.92;63.79;102732.78;7368568;19;19935;-62
2022/01/25 02:24:56;;;;;;;;;;;;;;;8.92;63.82;102731.06;7369465;19;19933;-62
2022/01/25 02:27:22;;;;;;;;;;;;;;;8.91;64.16;102737.09;7368214;19;19922;-62
2022/01/25 02:29:47;;;;;;;;;;;;;;;8.90;63.81;102737.97;7378569;19;19953;-63
2022/01/25 02:32:13;;;;;;;;;;;;;;;8.91;64.11;102736.25;7368258;19;19910;-63
2022/01/25 02:34:38;;;;;;;;;;;;;;;8.90;63.89;102737.97;7372231;19;19919;-62
2022/01/25 02:37:05;;;;;;;;;;;;;;;8.86;64.10;102738.75;7366328;19;19918;-63
2022/01/25 02:39:31;;;;;;;;;;;;;;;8.91;64.10;102742.31;7369262;19;19938;-63
2022/01/25 02:41:56;;;;;;;;;;;;;;;8.91;63.87;102731.91;7365980;19;20591;-61
2022/01/25 02:44:27;;;;;;;;;;;;;;;8.90;63.76;102724.94;7367352;19;19926;-63
2022/01/25 02:49:29;;;;;;;;;;;;;;;8.89;63.80;102725.81;7375295;19;19919;-62
2022/01/25 02:51:55;;;;;;;;;;;;;;;8.86;63.70;102722.25;7375711;19;21364;-63
2022/01/25 02:54:20;;;;;;;;;;;;;;;8.86;64.02;102723.13;7377061;19;19927;-62
2022/01/25 02:56:46;;;;;;;;;;;;;;;8.85;63.84;102716.16;7364190;19;19919;-63
2022/01/25 02:59:12;;;;;;;;;;;;;;;8.84;64.05;102720.50;7350796;19;19919;-63
2022/01/25 03:01:39;;;;;;;;;;;;;;;8.83;63.90;102717.88;7369315;19;19921;-62
2022/01/25 03:04:06;;;;;;;;;;;;;;;8.82;63.61;102718.75;7368221;19;19925;-62
2022/01/25 03:06:31;;;;;;;;;;;;;;;8.82;63.86;102721.34;7369773;19;20276;-62
2022/01/25 03:08:57;;;;;;;;;;;;;;;8.83;63.86;102723.09;7371045;19;19921;-62
2022/01/25 03:11:23;;;;;;;;;;;;;;;8.83;63.75;102713.56;7363105;19;20357;-62
2022/01/25 03:13:52;;;;;;;;;;;;;;;8.83;63.72;102716.16;7368058;19;20447;-62
2022/01/25 03:16:22;;;;;;;;;;;;;;;8.83;63.62;102710.06;7364662;19;19919;-62
2022/01/25 03:18:49;;;;;;;;;;;;;;;8.83;63.90;102702.25;7353846;19;19915;-61
2022/01/25 03:21:38;;;;;;;;;;;;;;;8.84;63.77;102706.59;7361982;19;20418;-63
2022/01/25 03:24:00;;;;;;;;;;;;;;;8.86;63.88;102707.50;7367395;19;19927;-62
2022/01/25 03:26:26;;;;;;;;;;;;;;;8.87;64.15;102709.28;7361994;19;19927;-62
2022/01/25 03:28:52;;;;;;;;;;;;;;;8.87;63.81;102700.56;7366956;19;19923;-63
2022/01/25 03:31:18;;;;;;;;;;;;;;;8.88;63.73;102700.59;7366689;19;19923;-62
2022/01/25 03:33:44;;;;;;;;;;;;;;;8.87;63.83;102698.84;7357936;19;19935;-63
2022/01/25 03:36:09;;;;;;;;;;;;;;;8.88;63.87;102705.81;7359504;19;20017;-63
2022/01/25 03:38:38;;;;;;;;;;;;;;;8.60;63.52;102651.50;7351828;19;19922;-62
2022/01/25 03:41:05;;;;;;;;;;;;;;;8.87;63.97;102693.66;7347809;19;19922;-62
2022/01/25 03:43:30;;;;;;;;;;;;;;;8.86;63.73;102699.69;7329233;19;19929;-62
2022/01/25 03:46:00;;;;;;;;;;;;;;;8.85;63.56;102690.13;7354498;19;19986;-62
2022/01/25 03:50:51;;;;;;;;;;;;;;;8.86;64.08;102686.66;7354705;19;19947;-62
2022/01/25 03:53:18;;;;;;;;;;;;;;;8.84;63.93;102685.75;7347774;19;19919;-62
2022/01/25 07:57:25;;;;;;;;;;;;;;;8.62;64.14;102733.13;7390870;19;20734;-63
2022/01/25 07:59:51;;;;;;;;;;;;;;;8.61;64.41;102734.84;7356638;19;19914;-62
2022/01/25 08:02:17;;;;;;;;;;;;;;;8.60;64.29;102729.63;7364933;19;19927;-62
2022/01/25 08:04:42;;;;;;;;;;;;;;;8.60;64.24;102735.69;7343270;19;19918;-62
2022/01/25 08:07:07;;;;;;;;;;;;;;;8.60;63.98;102740.03;7355344;19;19919;-62
2022/01/25 08:09:33;;;;;;;;;;;;;;;8.60;64.20;102740.03;7346552;19;19918;-69
2022/01/25 08:12:11;;;;;;;;;;;;;;;8.55;64.00;102735.63;2437073;19;10001964;-68
2022/01/25 08:14:38;;;;;;;;;;;;;;;8.61;64.04;102749.59;6654784;19;10000906;-68
2022/01/25 08:17:03;;;;;;;;;;;;;;;8.61;64.21;102749.59;7365712;19;19924;-68
2022/01/25 08:19:28;;;;;;;;;;;;;;;8.62;64.37;102753.94;7366617;19;19919;-68
2022/01/25 08:21:54;;;;;;;;;;;;;;;8.62;64.27;102753.94;7365628;19;19925;-69
2022/01/25 08:24:19;;;;;;;;;;;;;;;8.62;64.28;102759.16;7368743;19;19944;-69
2022/01/25 08:26:45;;;;;;;;;;;;;;;8.63;64.24;102760.94;7365586;19;19918;-67
2022/01/25 08:29:10;;;;;;;;;;;;;;;8.62;64.08;102764.38;7362465;19;20328;-66
2022/01/25 08:31:36;;;;;;;;;;;;;;;8.62;64.42;102764.38;7366010;19;19931;-68
2022/01/25 08:34:01;;;;;;;;;;;;;;;8.62;64.07;102769.56;7359598;19;19929;-68
2022/01/25 08:36:27;;;;;;;;;;;;;;;8.63;64.24;102776.56;7355413;19;19982;-68
2022/01/25 08:38:52;;;;;;;;;;;;;;;8.61;64.17;102776.50;7363496;19;19993;-68
2022/01/25 08:41:18;;;;;;;;;;;;;;;8.58;64.41;102769.53;7354321;19;19943;-68
2022/01/25 08:43:43;;;;;;;;;;;;;;;8.57;64.03;102772.13;7364843;19;19915;-68
2022/01/25 08:46:09;;;;;;;;;;;;;;;8.55;64.33;102769.47;7362246;19;19919;-68
2022/01/25 08:48:34;;;;;;;;;;;;;;;8.42;64.30;102757.09;7345625;19;19936;-69
2022/01/25 08:51:01;;;;;;;;;;;;;;;8.50;64.33;102771.09;7365126;19;19936;-69
2022/01/25 08:53:26;;;;;;;;;;;;;;;8.52;64.47;102773.75;7361675;19;20723;-68
2022/01/25 08:55:51;;;;;;;;;;;;;;;8.49;64.44;102771.97;7351314;19;19996;-69
2022/01/25 08:58:16;;;;;;;;;;;;;;;8.49;64.52;102766.75;7344826;19;19958;-68
2022/01/25 09:00:42;;;;;;;;;;;;;;;8.50;64.54;102773.72;7360510;19;19919;-68
2022/01/25 09:03:07;;;;;;;;;;;;;;;8.50;64.57;102768.50;7349723;19;20252;-68
2022/01/25 09:05:33;;;;;;;;;;;;;;;8.49;64.20;102764.16;7339394;19;19942;-68
2022/01/25 09:07:58;;;;;;;;;;;;;;;8.48;64.22;102765.00;7353795;19;19923;-68
2022/01/25 09:10:27;;;;;;;;;;;;;;;8.51;64.39;102766.78;7336193;19;19939;-68
2022/01/25 09:12:52;;;;;;;;;;;;;;;8.48;64.35;102762.41;7348028;19;19923;-69
2022/01/25 09:15:18;;;;;;;;;;;;;;;8.50;64.59;102763.28;7349548;19;20018;-68
2022/01/25 09:17:43;;;;;;;;;;;;;;;8.51;64.72;102766.78;7355368;19;19926;-68
2022/01/25 09:20:09;;;;;;;;;;;;;;;8.53;64.61;102765.09;7361556;19;19978;-69
2022/01/25 09:22:34;;;;;;;;;;;;;;;8.53;64.49;102765.97;7364499;19;19940;-68
2022/01/25 09:24:59;;;;;;;;;;;;;;;8.53;64.35;102759.88;7360472;19;20258;-69
2022/01/25 09:27:24;;;;;;;;;;;;;;;8.52;64.14;102764.22;7358776;19;19918;-68
2022/01/25 09:29:50;;;;;;;;;;;;;;;8.50;64.16;102760.69;7360883;19;19915;-69
2022/01/25 09:32:15;;;;;;;;;;;;;;;8.51;64.37;102762.44;7356405;19;19938;-68
2022/01/25 09:34:41;;;;;;;;;;;;;;;8.52;64.38;102759.00;7356575;19;19919;-68
2022/01/25 09:37:06;;;;;;;;;;;;;;;8.52;64.10;102761.63;7349996;19;19999;-68
2022/01/25 09:39:31;;;;;;;;;;;;;;;8.53;64.55;102765.09;7360290;19;19927;-68
2022/01/25 09:41:57;;;;;;;;;;;;;;;8.54;64.58;102762.50;7354946;19;19919;-68
2022/01/25 09:44:23;;;;;;;;;;;;;;;8.56;64.43;102760.81;7363722;19;19907;-69
2022/01/25 09:46:53;;;;;;;;;;;;;;;8.57;64.22;102761.72;7359791;19;19990;-68
2022/01/25 09:49:18;;;;;;;;;;;;;;;8.60;64.42;102766.06;7370772;19;20383;-69
2022/01/25 09:51:44;;;;;;;;;;;;;;;8.63;64.61;102766.16;7363131;19;19922;-68
2022/01/25 09:54:09;;;;;;;;;;;;;;;8.64;64.56;102762.69;7364229;19;19915;-69
2022/01/25 09:56:35;;;;;;;;;;;;;;;8.66;64.56;102768.78;7369883;19;19922;-68
2022/01/25 09:59:00;;;;;;;;;;;;;;;8.67;64.33;102767.94;7363304;19;19990;-68
2022/01/25 10:01:30;;;;;;;;;;;;;;;8.68;64.45;102765.38;7371823;19;19918;-68
2022/01/25 10:03:55;;;;;;;;;;;;;;;8.72;64.37;102766.31;7370484;19;20352;-68
2022/01/25 10:06:22;;;;;;;;;;;;;;;8.74;64.22;102759.41;7369110;19;19911;-68
2022/01/25 10:08:51;;;;;;;;;;;;;;;8.75;64.08;102758.53;7373412;19;19939;-68
2022/01/25 10:11:19;;;;;;;;;;;;;;;8.76;64.14;102762.91;7359073;19;19922;-69
2022/01/25 10:13:51;;;;;;;;;;;;;;;8.77;64.54;102764.69;7364047;19;19948;-69
2022/01/25 10:16:18;;;;;;;;;;;;;;;8.78;64.26;102761.22;7370578;19;19926;-68
2022/01/25 10:18:45;;;;;;;;;;;;;;;8.78;64.34;102772.50;7370273;19;19934;-68
2022/01/25 10:21:11;;;;;;;;;;;;;;;8.78;64.19;102766.44;7366624;19;19918;-69
2022/01/25 10:23:37;;;;;;;;;;;;;;;8.79;64.56;102768.19;7360631;19;19923;-68
2022/01/25 10:26:03;;;;;;;;;;;;;;;8.80;64.16;102768.19;7360090;19;19918;-69
2022/01/25 10:28:29;;;;;;;;;;;;;;;8.83;64.41;102776.06;7369607;19;19956;-68
2022/01/25 10:30:56;;;;;;;;;;;;;;;8.86;64.09;102772.63;7366140;19;20665;-68
2022/01/25 10:33:31;;;;;;;;;;;;;;;8.89;64.46;102762.28;7370017;19;19918;-68
2022/01/25 10:35:59;;;;;;;;;;;;;;;8.92;64.29;102767.56;7370984;19;20989;-68
2022/01/25 10:38:26;;;;;;;;;;;;;;;8.94;64.07;102758.03;7369628;19;19925;-67
2022/01/25 10:40:53;;;;;;;;;;;;;;;8.96;64.29;102753.69;7364004;19;19922;-68
2022/01/25 10:43:20;;;;;;;;;;;;;;;8.98;64.06;102759.84;7368640;19;21001;-68
2022/01/25 10:45:46;;;;;;;;;;;;;;;9.01;64.04;102761.59;7370872;19;19927;-67
2022/01/25 10:48:14;;;;;;;;;;;;;;;9.02;64.02;102756.44;7354627;19;19923;-68
2022/01/25 10:50:42;;;;;;;;;;;;;;;9.06;64.20;102762.56;7358844;19;19915;-68
2022/01/25 10:53:09;;;;;;;;;;;;;;;9.08;64.04;102761.75;7365869;19;19963;-67
2022/01/25 10:55:37;;;;;;;;;;;;;;;9.09;63.99;102762.63;7369596;19;19970;-68
2022/01/25 10:58:03;;;;;;;;;;;;;;;9.12;63.98;102761.78;7363042;19;20291;-68
2022/01/25 11:00:36;;;;;;;;;;;;;;;9.13;64.12;102755.72;7366160;19;19914;-68
2022/01/25 11:03:02;;;;;;;;;;;;;;;9.13;64.18;102756.59;7370651;19;19918;-68
2022/01/25 11:05:30;;;;;;;;;;;;;;;9.14;63.93;102755.75;7366101;19;21113;-68
2022/01/25 11:07:56;;;;;;;;;;;;;;;9.16;64.33;102759.25;7362042;19;19952;-68
2022/01/25 11:10:21;;;;;;;;;;;;;;;9.18;63.96;102754.06;7362338;19;20510;-68
2022/01/25 11:13:03;;;;;;;;;;;;;;;9.20;64.08;102765.38;7371131;19;19923;-68
2022/01/25 11:15:28;;;;;;;;;;;;;;;9.23;64.23;102762.84;1097447;19;10001895;-68
2022/01/25 11:17:53;;;;;;;;;;;;;;;9.25;64.42;102764.59;7361953;19;19919;-68
2022/01/25 11:20:19;;;;;;;;;;;;;;;9.28;64.23;102769.88;7370373;19;20349;-68
2022/01/25 11:22:44;;;;;;;;;;;;;;;9.32;64.04;102765.56;7370241;19;19915;-68
2022/01/25 11:25:10;;;;;;;;;;;;;;;9.35;64.10;102776.06;7366571;19;19928;-68
2022/01/25 11:27:37;;;;;;;;;;;;;;;9.38;64.18;102776.13;7367698;19;19922;-68
2022/01/25 11:30:06;;;;;;;;;;;;;;;9.40;64.11;102778.75;7361497;19;19986;-68
2022/01/25 11:32:34;;;;;;;;;;;;;;;9.42;64.12;102777.91;7369477;19;20035;-67
2022/01/25 11:35:00;;;;;;;;;;;;;;;9.43;63.94;102766.63;7361588;19;19927;-68
2022/01/25 11:37:36;;;;;;;;;;;;;;;9.47;64.28;102767.53;7363424;19;19932;-68
2022/01/25 11:40:01;;;;;;;;;;;;;;;9.48;64.09;102762.38;7361045;19;19926;-68
2022/01/25 11:42:34;;;;;;;;;;;;;;;9.51;64.19;102757.19;7367987;19;20439;-69
2022/01/25 11:44:59;;;;;;;;;;;;;;;9.52;63.87;102758.91;7360930;19;19910;-68
2022/01/25 11:47:35;;;;;;;;;;;;;;;9.55;63.85;102753.75;7364541;19;20580;-68
2022/01/25 11:50:02;;;;;;;;;;;;;;;9.57;64.28;102757.25;7368254;19;20074;-68
2022/01/25 11:52:28;;;;;;;;;;;;;;;9.59;64.11;102758.19;7366089;19;19923;-68
2022/01/25 11:55:13;;;;;;;;;;;;;;;9.63;64.14;102756.50;7358812;19;20450;-68
2022/01/25 11:57:46;;;;;;;;;;;;;;;9.67;64.37;102760.00;7370011;19;19918;-68
2022/01/25 12:00:11;;;;;;;;;;;;;;;9.69;64.02;102759.19;7360388;19;19915;-68
2022/01/25 12:02:47;;;;;;;;;;;;;;;9.72;64.15;102758.34;7369216;19;19924;-68
2022/01/25 12:05:14;;;;;;;;;;;;;;;9.73;64.08;102757.47;7365991;19;19956;-68
2022/01/25 12:07:43;;;;;;;;;;;;;;;9.76;63.90;102763.63;7356748;19;19930;-67
2022/01/25 12:10:27;;;;;;;;;;;;;;;9.78;63.91;102763.63;7367489;19;19926;-68
2022/01/25 12:13:25;;;;;;;;;;;;;;;9.84;63.58;102761.13;7365637;19;19939;-68
2022/01/25 12:16:30;;;;;;;;;;;;;;;9.89;63.98;102756.84;7260699;19;2004373;-68
2022/01/25 12:19:05;;;;;;;;;;;;;;;9.94;63.66;102757.78;7262842;19;2004235;-68
2022/01/25 12:21:53;;;;;;;;;;;;;;;9.98;63.70;102754.34;7366255;19;19930;-68
2022/01/25 12:24:39;;;;;;;;;;;;;;;10.01;63.93;102749.16;7361679;19;20324;-68
2022/01/25 12:29:43;;;;;;;;;;;;;;;10.08;63.68;102753.59;7363375;19;19919;-67
2022/01/25 12:32:25;;;;;;;;;;;;;;;10.12;63.55;102752.78;7365030;19;20247;-68
2022/01/25 12:35:02;;;;;;;;;;;;;;;10.16;63.89;102751.09;7356692;19;20344;-68
2022/01/25 12:37:54;;;;;;;;;;;;;;;10.18;63.60;102745.88;7359656;19;19910;-68
2022/01/25 12:40:25;;;;;;;;;;;;;;;10.22;63.81;102747.66;7257966;19;2004646;-68
2022/01/25 12:42:51;;;;;;;;;;;;;;;10.23;63.33;102738.97;7365788;19;20417;-68
2022/01/25 12:45:16;;;;;;;;;;;;;;;10.27;63.34;102748.63;7350134;19;19915;-68
2022/01/25 12:47:50;;;;;;;;;;;;;;;10.29;63.61;102755.63;7361388;19;19918;-68
2022/01/25 12:50:15;;;;;;;;;;;;;;;10.32;63.32;102744.34;7363859;19;19936;-68
2022/01/25 12:52:40;;;;;;;;;;;;;;;10.35;63.69;102744.38;7354552;19;20532;-68
2022/01/25 12:55:06;;;;;;;;;;;;;;;10.37;63.68;102742.66;7348255;19;19922;-68
2022/01/25 12:57:32;;;;;;;;;;;;;;;10.31;63.57;102725.19;7362118;19;19919;-68
2022/01/25 12:59:58;;;;;;;;;;;;;;;10.41;63.34;102741.81;7360424;19;19921;-68
2022/01/25 13:02:25;;;;;;;;;;;;;;;10.43;63.30;102737.47;7357560;19;20389;-68
2022/01/25 13:04:50;;;;;;;;;;;;;;;10.45;63.34;102746.22;7363542;19;19911;-68
2022/01/25 13:07:15;;;;;;;;;;;;;;;10.48;63.47;102738.41;7360768;19;21529;-68
2022/01/25 13:09:45;;;;;;;;;;;;;;;10.50;63.14;102735.84;7260691;19;19975;-68
2022/01/25 13:12:16;;;;;;;;;;;;;;;10.51;62.95;102740.19;1169770;19;10002027;-68
2022/01/25 13:14:48;;;;;;;;;;;;;;;10.53;63.13;102744.56;7358808;19;19918;-68
2022/01/25 13:17:21;;;;;;;;;;;;;;;10.54;63.24;102741.09;7359206;19;19928;-68
2022/01/25 13:19:54;;;;;;;;;;;;;;;10.56;63.22;102749.81;7365859;19;20343;-68
2022/01/25 13:22:20;;;;;;;;;;;;;;;10.57;63.08;102741.13;7366254;19;19933;-68
2022/01/25 13:27:50;;;;;;;;;;;;;;;10.56;62.83;102734.16;7254932;19;2004371;-68
2022/01/25 13:33:01;;;;;;;;;;;;;;;10.55;62.85;102726.31;7368029;19;19921;-68
2022/01/25 13:35:31;;;;;;;;;;;;;;;10.56;62.80;102717.59;7369453;19;20304;-68
2022/01/25 13:38:10;;;;;;;;;;;;;;;10.56;63.03;102718.47;7363415;19;19941;-68
2022/01/25 13:40:47;;;;;;;;;;;;;;;10.54;62.76;102709.75;7365256;19;19944;-68
2022/01/25 13:45:53;;;;;;;;;;;;;;;10.54;62.97;102708.84;7375723;19;19918;-67
2022/01/25 13:48:21;;;;;;;;;;;;;;;10.54;63.30;102704.53;7370505;19;20763;-68
2022/01/25 13:50:47;;;;;;;;;;;;;;;10.53;63.06;102705.38;7365414;19;19923;-68
2022/01/25 13:53:12;;;;;;;;;;;;;;;10.52;62.57;102710.59;7367268;19;19999;-68
2022/01/25 13:55:37;;;;;;;;;;;;;;;10.51;62.51;102703.63;7362605;19;19919;-67
2022/01/25 13:58:17;;;;;;;;;;;;;;;10.52;62.97;102706.22;7370001;19;19922;-68
2022/01/25 14:00:43;;;;;;;;;;;;;;;10.54;62.71;102703.63;7357555;19;19971;-68
2022/01/25 14:03:08;;;;;;;;;;;;;;;10.53;62.65;102697.53;7365752;19;19992;-68
2022/01/25 14:05:37;;;;;;;;;;;;;;;10.52;62.77;102693.19;7357841;19;20457;-68
2022/01/25 14:08:03;;;;;;;;;;;;;;;10.50;62.93;102686.19;7362160;19;19978;-68
2022/01/25 14:10:29;;;;;;;;;;;;;;;10.52;62.54;102680.13;7359042;19;19918;-68
2022/01/25 14:23:55;;;;;;;;;;;;;;;10.51;62.51;102667.91;7359472;19;19933;-68
2022/01/25 14:26:20;;;;;;;;;;;;;;;10.51;62.53;102665.31;7357211;19;19998;-68
2022/01/25 14:28:54;;;;;;;;;;;;;;;10.51;62.50;102667.91;7371266;19;20366;-68
2022/01/25 14:31:23;;;;;;;;;;;;;;;10.50;62.40;102681.84;7360855;19;20006;-68
2022/01/25 14:33:52;;;;;;;;;;;;;;;10.50;62.11;102676.63;7370008;19;19923;-68
2022/01/25 14:36:17;;;;;;;;;;;;;;;10.51;62.41;102667.91;7363981;19;19931;-68
2022/01/25 14:38:44;;;;;;;;;;;;;;;10.53;62.15;102670.53;7369222;19;19940;-67
2022/01/25 14:41:09;;;;;;;;;;;;;;;10.53;62.21;102668.78;7362122;19;19919;-68
2022/01/25 14:43:39;;;;;;;;;;;;;;;10.55;62.63;102664.47;7361840;19;19926;-68
2022/01/25 14:46:06;;;;;;;;;;;;;;;10.57;62.51;102654.91;7373404;19;19940;-68
2022/01/25 14:48:35;;;;;;;;;;;;;;;10.59;62.62;102655.81;7364681;19;19927;-68
2022/01/25 14:51:01;;;;;;;;;;;;;;;10.62;62.57;102654.94;7358584;19;19946;-68
2022/01/25 14:53:27;;;;;;;;;;;;;;;10.68;62.09;102659.34;7353672;19;20339;-68
2022/01/25 14:55:53;;;;;;;;;;;;;;;10.72;62.54;102650.69;7368938;19;19927;-67
2022/01/25 15:01:31;;;;;;;;;;;;;;;10.82;62.01;102663.81;6039982;19;10000934;-68
2022/01/25 15:03:57;;;;;;;;;;;;;;;10.85;62.27;102663.00;7366544;19;19925;-68
2022/01/25 15:06:23;;;;;;;;;;;;;;;10.88;62.28;102665.59;7356245;19;19918;-68
2022/01/25 15:08:49;;;;;;;;;;;;;;;10.89;61.96;102669.97;7358616;19;19915;-68
2022/01/25 15:11:14;;;;;;;;;;;;;;;10.89;61.76;102664.72;7372921;19;19952;-68
2022/01/25 15:13:40;;;;;;;;;;;;;;;10.89;61.75;102656.91;7367182;19;20379;-68
2022/01/25 15:16:06;;;;;;;;;;;;;;;10.89;62.01;102659.50;7370352;19;19956;-68
2022/01/25 15:18:33;;;;;;;;;;;;;;;10.88;61.83;102657.75;7370099;19;19926;-68
2022/01/25 15:21:00;;;;;;;;;;;;;;;10.88;62.09;102670.84;7364933;19;19915;-67
2022/01/25 15:23:26;;;;;;;;;;;;;;;10.88;61.87;102665.59;7362443;19;19939;-68
2022/01/25 15:25:57;;;;;;;;;;;;;;;10.87;61.70;102663.84;7358212;19;19919;-68
2022/01/25 15:28:23;;;;;;;;;;;;;;;10.86;61.81;102656.88;7363235;19;19922;-68
2022/01/25 15:30:49;;;;;;;;;;;;;;;10.84;61.89;102656.84;7359276;19;19940;-68
2022/01/25 15:33:14;;;;;;;;;;;;;;;10.84;61.93;102650.75;7365765;19;19911;-68
2022/01/25 15:35:40;;;;;;;;;;;;;;;10.82;61.74;102661.22;7367614;19;19915;-68
2022/01/25 15:38:05;;;;;;;;;;;;;;;10.78;61.73;102648.09;7357341;19;19918;-68
2022/01/25 15:40:33;;;;;;;;;;;;;;;10.76;61.99;102657.69;7356066;19;19926;-68
2022/01/25 15:42:58;;;;;;;;;;;;;;;10.72;61.33;102650.69;7353837;19;19910;-68
2022/01/25 15:45:29;;;;;;;;;;;;;;;10.68;61.59;102655.00;7369199;19;19926;-68
2022/01/25 15:47:55;;;;;;;;;;;;;;;10.67;61.42;102663.69;7361852;19;19918;-68
2022/01/25 15:50:23;;;;;;;;;;;;;;;10.65;61.36;102665.44;7364067;19;19935;-68
2022/01/25 15:52:48;;;;;;;;;;;;;;;10.63;61.53;102668.00;7368246;19;19923;-68
2022/01/25 15:55:13;;;;;;;;;;;;;;;10.63;61.47;102674.97;7356548;19;19910;-68
2022/01/25 15:57:39;;;;;;;;;;;;;;;10.62;61.38;102668.88;7348487;19;19919;-68
2022/01/25 16:00:05;;;;;;;;;;;;;;;10.61;61.37;102669.75;7360137;19;19945;-68
2022/01/25 16:02:31;;;;;;;;;;;;;;;10.57;61.44;102670.59;7371790;19;20338;-68
2022/01/25 16:04:56;;;;;;;;;;;;;;;10.54;61.49;102670.56;7370958;19;19923;-68
2022/01/25 16:07:21;;;;;;;;;;;;;;;10.50;61.13;102674.00;7365360;19;20382;-68
2022/01/25 16:09:53;;;;;;;;;;;;;;;10.45;60.98;102667.00;7374116;19;19918;-68
2022/01/25 16:12:18;;;;;;;;;;;;;;;10.41;60.92;102671.31;7359939;19;19922;-67
2022/01/25 16:14:43;;;;;;;;;;;;;;;10.37;60.87;102659.06;7366981;19;19929;-68
2022/01/25 16:17:09;;;;;;;;;;;;;;;10.31;60.94;102666.84;7364611;19;19919;-68
2022/01/25 16:19:34;;;;;;;;;;;;;;;10.25;61.08;102670.28;7365342;19;20293;-68
2022/01/25 16:22:00;;;;;;;;;;;;;;;10.17;61.22;102665.81;7365781;19;19923;-67
2022/01/25 16:24:25;;;;;;;;;;;;;;;10.12;60.86;102679.69;7359688;19;19911;-68
2022/01/25 16:26:50;;;;;;;;;;;;;;;10.06;61.23;102673.53;7365332;19;20010;-68
2022/01/25 16:29:16;;;;;;;;;;;;;;;10.00;61.09;102682.16;7361285;19;19962;-67
2022/01/25 16:31:43;;;;;;;;;;;;;;;9.94;61.13;102684.72;7358507;19;19986;-68
2022/01/25 16:34:08;;;;;;;;;;;;;;;9.88;61.18;102684.59;7358189;19;19923;-68
2022/01/25 16:36:34;;;;;;;;;;;;;;;9.79;60.88;102677.56;7366212;19;19941;-68
2022/01/25 16:39:00;;;;;;;;;;;;;;;9.72;61.16;102672.25;7356472;19;19953;-68
2022/01/25 16:41:26;;;;;;;;;;;;;;;9.64;60.94;102684.34;7360070;19;20118;-68
2022/01/25 16:43:51;;;;;;;;;;;;;;;9.55;61.47;102683.34;7363686;19;19944;-68
2022/01/25 16:46:18;;;;;;;;;;;;;;;9.45;61.38;102684.06;7365629;19;20825;-68
2022/01/25 16:48:45;;;;;;;;;;;;;;;9.37;61.27;102693.50;7364253;19;19937;-67
2022/01/25 16:51:24;;;;;;;;;;;;;;;9.22;61.43;102690.69;4091919;19;10001444;-68
2022/01/25 16:53:49;;;;;;;;;;;;;;;9.21;61.62;102709.78;5019059;19;10001200;-68
2022/01/25 16:56:16;;;;;;;;;;;;;;;9.13;61.11;102711.41;7358824;19;20361;-68
2022/01/25 16:58:42;;;;;;;;;;;;;;;9.07;61.38;102717.38;7358063;19;19954;-68
2022/01/25 17:01:07;;;;;;;;;;;;;;;8.99;61.24;102730.31;7354071;19;19923;-68
2022/01/25 17:03:33;;;;;;;;;;;;;;;8.93;61.26;102734.56;7363606;19;19914;-68
2022/01/25 17:05:58;;;;;;;;;;;;;;;8.87;61.46;102734.41;7359951;19;20266;-67
2022/01/25 17:08:24;;;;;;;;;;;;;;;8.80;61.35;102728.25;7362688;19;19927;-67
2022/01/25 17:10:50;;;;;;;;;;;;;;;8.74;61.60;102738.56;7358547;19;20369;-68
2022/01/25 17:13:15;;;;;;;;;;;;;;;8.68;61.67;102739.34;7356876;19;19929;-68
2022/01/25 17:15:41;;;;;;;;;;;;;;;8.63;61.56;102745.31;7351398;19;20493;-68
2022/01/25 17:18:06;;;;;;;;;;;;;;;8.55;61.48;102742.56;7351300;19;19923;-68
2022/01/25 17:20:31;;;;;;;;;;;;;;;8.47;61.34;102742.44;7359667;19;19955;-68
2022/01/25 17:22:58;;;;;;;;;;;;;;;8.40;61.89;102748.34;7357289;19;19994;-68
2022/01/25 17:25:24;;;;;;;;;;;;;;;8.32;61.89;102749.91;7358343;19;19923;-67
2022/01/25 17:27:49;;;;;;;;;;;;;;;8.24;61.77;102757.56;7357874;19;19919;-68
2022/01/25 17:30:15;;;;;;;;;;;;;;;8.16;61.76;102753.03;7357377;19;19918;-68
2022/01/25 17:32:40;;;;;;;;;;;;;;;8.08;61.88;102755.50;7369166;19;19926;-68
2022/01/25 17:35:06;;;;;;;;;;;;;;;8.02;61.94;102760.59;7367808;19;19923;-67
2022/01/25 17:37:33;;;;;;;;;;;;;;;7.94;62.03;102763.00;7362676;19;19923;-68
2022/01/25 17:39:59;;;;;;;;;;;;;;;7.86;61.73;102764.59;7363339;19;19933;-67
2022/01/25 17:42:25;;;;;;;;;;;;;;;7.79;61.90;102757.47;7353513;19;19915;-68
2022/01/25 17:44:50;;;;;;;;;;;;;;;7.72;62.10;102761.69;7368062;19;19923;-68
2022/01/25 17:47:16;;;;;;;;;;;;;;;7.66;62.14;102755.47;7366743;19;19931;-68
2022/01/25 17:49:41;;;;;;;;;;;;;;;7.58;62.17;102757.88;7364813;19;19923;-67
2022/01/25 17:52:07;;;;;;;;;;;;;;;7.50;62.13;102749.94;7358960;19;19914;-68
2022/01/25 17:54:32;;;;;;;;;;;;;;;7.43;62.46;102753.22;7357450;19;19926;-68
2022/01/25 17:56:57;;;;;;;;;;;;;;;7.36;62.15;102756.53;7358300;19;20340;-68
2022/01/25 17:59:23;;;;;;;;;;;;;;;7.30;62.17;102756.38;7354024;19;20403;-68
2022/01/25 18:01:51;;;;;;;;;;;;;;;7.24;62.18;102751.88;7357384;19;19915;-67
2022/01/25 18:04:16;;;;;;;;;;;;;;;7.18;62.48;102750.88;7361176;19;19915;-68
2022/01/25 18:06:41;;;;;;;;;;;;;;;7.10;62.63;102758.50;7358027;19;19992;-67
2022/01/25 18:09:07;;;;;;;;;;;;;;;7.05;62.29;102760.09;7365487;19;19915;-68
2022/01/25 18:11:33;;;;;;;;;;;;;;;7.00;62.56;102756.50;7362303;19;20404;-68
2022/01/25 18:13:58;;;;;;;;;;;;;;;6.93;62.55;102755.47;7366227;19;19931;-68